Saturday, July 21, 2018, 8:36 PM EDT
Back to Local

KNYC, New York City Central Park

Location: New York, NY, United States Lat: 40.783
Local Time: 8:36 PM EDT ( 0:36 GMT) Lon: -73.967
Time Zone: US/Eastern Elev: 157 ft

Show me the last for .
Show Decoded

2018-07-21 19:51 METAR KNYC 212351Z AUTO 06011G18KT 9SM -RA BKN029 OVC037 21/16 A3000 RMK AO2
                 RAB11E21B50 SLP149 P0000 60000 T02110156 10244 20206 58014 $ =
2018-07-21 18:51 METAR KNYC 212251Z AUTO 08010G19KT 050V110 10SM BKN045 OVC050 21/16 A3002 RMK
                 AO2 SLP155 T02110161 $ =
2018-07-21 17:51 METAR KNYC 212151Z AUTO VRB06KT 10SM SCT047 BKN060 22/16 A3002 RMK AO2 SLP158
                 T02220161 $ =
2018-07-21 16:51 METAR KNYC 212051Z AUTO 09007KT 040V130 10SM FEW029 23/16 A3004 RMK AO2 SLP163
                 T02280161 56012 $ =
2018-07-21 15:51 METAR KNYC 211951Z AUTO 06008KT 10SM FEW030 BKN038 BKN110 23/17 A3005 RMK AO2
                 SLP166 T02280167 $ =
2018-07-21 14:51 METAR KNYC 211851Z AUTO VRB06KT 10SM FEW044 23/16 A3007 RMK AO2 SLP172 T02330156
                 $ =
2018-07-21 13:51 METAR KNYC 211751Z AUTO 10SM FEW043 24/14 A3007 RMK AO2 SLP174 T02440144 10261
                 20217 58014 $ =
2018-07-21 12:51 METAR KNYC 211651Z AUTO 06010G14KT 10SM BKN044 25/15 A3010 RMK AO2 SLP181
                 T02500150 $ =
2018-07-21 11:51 METAR KNYC 211551Z AUTO 06007G17KT 10SM FEW044 23/14 A3010 RMK AO2 SLP185
                 T02330144 $ =
2018-07-21 10:51 METAR KNYC 211451Z AUTO VRB04KT 10SM CLR 24/13 A3011 RMK AO2 SLP187 T02390128
                 50002 $ =
2018-07-21 09:51 METAR KNYC 211351Z AUTO VRB03KT 10SM CLR 23/13 A3012 RMK AO2 SLP189 T02280128 $
                 =
2018-07-21 08:51 METAR KNYC 211251Z AUTO 00000KT 10SM FEW033 22/14 A3012 RMK AO2 SLP189 T02220144
                 $ =
2018-07-21 07:51 METAR KNYC 211151Z AUTO VRB05KT 10SM FEW032 22/14 A3011 RMK AO2 SLP186 T02170139
                 10217 20200 56003 $ =
2018-07-21 06:51 METAR KNYC 211051Z AUTO VRB03KT 10SM CLR 21/16 A3011 RMK AO2 SLP187 T02110156 $
                 =
2018-07-21 05:51 METAR KNYC 210951Z AUTO VRB03KT 10SM CLR 21/15 A3011 RMK AO2 SLP187 T02110150 $
                 =
2018-07-21 04:51 METAR KNYC 210851Z AUTO 00000KT 10SM FEW033 21/14 A3012 RMK AO2 SLP189 T02060144
                 58003 $ =
2018-07-21 03:51 METAR KNYC 210751Z AUTO 00000KT 10SM CLR 21/15 A3012 RMK AO2 SLP190 T02060150 $
                 =
2018-07-21 02:51 METAR KNYC 210651Z AUTO VRB03KT 10SM FEW032 21/14 A3013 RMK AO2 SLP191 T02110144
                 $ =
2018-07-21 01:51 METAR KNYC 210551Z AUTO VRB04KT 10SM SCT033 22/15 A3013 RMK AO2 SLP191 60000
                 T02170150 10228 20211 58010 $ =
2018-07-20 23:51 METAR KNYC 210351Z AUTO VRB03KT 10SM CLR 21/14 A3015 RMK AO2 SLP198 T02110144 $
                 =
2018-07-20 22:51 METAR KNYC 210251Z AUTO VRB03KT 10SM CLR 22/14 A3016 RMK AO2 SLP202 60000
                 T02220144 53002 $ =
2018-07-20 21:51 METAR KNYC 210151Z AUTO VRB03KT 10SM CLR 22/15 A3015 RMK AO2 RAE08 SLP201 P0000
                 T02170150 $ =
2018-07-20 20:51 METAR KNYC 210051Z AUTO VRB03KT 10SM -RA CLR 22/15 A3015 RMK AO2 RAB51 SLP199
                 P0000 T02220150 $ =

Support USWX by starting your Amazon purchase here.